createdAt,value
2022-08-26T00:03:19.300Z,21.64
2022-08-26T00:08:21.753Z,22.26
2022-08-26T00:13:23.908Z,22.25
2022-08-26T00:18:27.454Z,21.90
2022-08-26T00:23:33.350Z,22.50
2022-08-26T00:28:35.916Z,21.81
2022-08-26T00:33:39.665Z,21.36
2022-08-26T00:38:42.538Z,21.41
2022-08-26T00:43:46.339Z,20.65
2022-08-26T00:48:53.888Z,21.55
2022-08-26T00:54:10.730Z,21.71
2022-08-26T00:59:14.391Z,20.99
2022-08-26T01:04:22.898Z,21.27
2022-08-26T01:09:25.709Z,21.43
2022-08-26T01:14:32.634Z,21.82
2022-08-26T01:19:49.049Z,21.91
2022-08-26T01:24:51.393Z,21.74
2022-08-26T01:29:53.865Z,21.82
2022-08-26T01:34:56.070Z,20.66
2022-08-26T01:39:59.031Z,20.70
2022-08-26T01:45:09.941Z,21.19
2022-08-26T01:50:27.833Z,21.18
2022-08-26T01:55:34.194Z,20.91
2022-08-26T02:00:37.102Z,21.12
2022-08-26T02:05:39.294Z,21.09
2022-08-26T02:10:42.414Z,20.98
2022-08-26T02:15:45.803Z,21.09
2022-08-26T02:20:51.657Z,21.15
2022-08-26T02:26:11.248Z,20.44
2022-08-26T02:31:13.463Z,20.55
2022-08-26T02:36:21.238Z,20.37
2022-08-26T02:41:23.393Z,20.72
2022-08-26T02:46:27.919Z,20.98
2022-08-26T02:51:32.209Z,21.12
2022-08-26T02:56:36.051Z,21.06
2022-08-26T03:01:39.234Z,20.82
2022-08-26T03:06:41.655Z,21.01
2022-08-26T03:11:43.842Z,20.50
2022-08-26T03:16:48.533Z,20.55
2022-08-26T03:21:53.028Z,20.82
2022-08-26T03:27:01.972Z,21.02
2022-08-26T03:32:09.868Z,20.65
2022-08-26T03:37:12.783Z,21.02
2022-08-26T03:42:16.038Z,20.76
2022-08-26T03:47:18.363Z,20.92
2022-08-26T03:52:20.499Z,21.13
2022-08-26T03:57:22.663Z,20.91
2022-08-26T04:02:26.129Z,20.90
2022-08-26T04:07:28.345Z,21.06
2022-08-26T04:12:34.223Z,21.14
2022-08-26T04:17:37.164Z,21.24
2022-08-26T04:22:39.681Z,21.21
2022-08-26T04:27:42.806Z,21.06
2022-08-26T04:32:45.006Z,20.69
2022-08-26T04:37:47.982Z,20.62
2022-08-26T04:42:50.535Z,20.55
2022-08-26T04:47:56.494Z,20.15
2022-08-26T04:52:59.110Z,19.97
2022-08-26T04:58:01.691Z,19.84
2022-08-26T05:03:03.982Z,20.00
2022-08-26T05:08:06.484Z,20.15
2022-08-26T05:13:10.127Z,19.59
2022-08-26T05:18:16.470Z,20.16
2022-08-26T05:23:19.011Z,20.12
2022-08-26T05:28:23.077Z,20.18
2022-08-26T05:33:25.466Z,20.40
2022-08-26T05:38:30.150Z,20.23
2022-08-26T05:43:32.660Z,19.30
2022-08-26T05:48:35.343Z,20.36
2022-08-26T05:53:40.199Z,19.20
2022-08-26T05:58:46.341Z,20.37
2022-08-26T06:03:51.883Z,20.61
2022-08-26T06:08:54.261Z,19.91
2022-08-26T06:14:03.496Z,18.27
2022-08-26T06:19:10.524Z,20.34
2022-08-26T06:24:33.037Z,20.98
2022-08-26T06:29:36.709Z,21.63
2022-08-26T06:34:39.870Z,21.91
2022-08-26T06:39:42.086Z,21.42
2022-08-26T06:44:44.817Z,21.90
2022-08-26T06:49:47.330Z,21.94
2022-08-26T06:54:50.652Z,22.10
2022-08-26T06:59:53.206Z,22.35
2022-08-26T07:04:56.847Z,22.69
2022-08-26T07:09:59.879Z,22.86
2022-08-26T07:15:02.448Z,23.43
2022-08-26T07:20:07.815Z,24.09
2022-08-26T07:25:11.530Z,23.99
2022-08-26T07:30:14.731Z,19.41
2022-08-26T07:35:17.311Z,20.88
2022-08-26T07:40:19.642Z,20.65
2022-08-26T07:45:22.568Z,17.80
2022-08-26T07:50:49.417Z,17.03
2022-08-26T07:55:49.720Z,18.74
2022-08-26T08:00:52.426Z,19.15
2022-08-26T08:05:59.757Z,20.59
2022-08-26T08:11:06.745Z,17.78
2022-08-26T08:16:12.824Z,17.96
2022-08-26T08:21:21.226Z,17.03
2022-08-26T08:26:26.702Z,17.27
2022-08-26T08:36:54.490Z,18.34
2022-08-26T08:42:11.919Z,19.14
2022-08-26T08:47:36.106Z,18.15
2022-08-26T08:52:42.659Z,18.74
2022-08-26T08:58:02.485Z,19.88
2022-08-26T09:03:30.682Z,20.39
2022-08-26T09:08:37.090Z,18.46
2022-08-26T09:13:48.747Z,18.51
2022-08-26T09:19:04.766Z,18.24
2022-08-26T09:24:07.552Z,17.10
2022-08-26T09:29:23.566Z,17.46
2022-08-26T09:34:28.193Z,19.33
2022-08-26T09:39:50.239Z,19.44
2022-08-26T09:45:06.281Z,20.35
2022-08-26T09:50:29.396Z,20.09
2022-08-26T09:55:31.891Z,20.22
2022-08-26T10:00:41.340Z,21.48
2022-08-26T10:05:59.095Z,20.02
2022-08-26T10:11:07.187Z,20.51
2022-08-26T10:16:30.383Z,19.89
2022-08-26T10:21:43.408Z,20.84
2022-08-26T10:27:07.878Z,20.87
2022-08-26T10:32:31.362Z,22.24
2022-08-26T10:37:38.652Z,21.67
2022-08-26T10:42:46.641Z,21.17
2022-08-26T10:48:02.335Z,22.87
2022-08-26T10:53:24.928Z,21.20
2022-08-26T10:58:32.257Z,20.45
2022-08-26T11:03:36.536Z,20.98
2022-08-26T11:08:56.883Z,20.52
2022-08-26T11:14:01.685Z,17.53
2022-08-26T11:19:04.856Z,15.89
2022-08-26T11:24:07.069Z,16.97
2022-08-26T11:29:12.869Z,17.61
2022-08-26T11:34:15.630Z,18.57
2022-08-26T11:39:20.676Z,20.63
2022-08-26T11:44:26.494Z,19.23
2022-08-26T11:49:31.853Z,18.88
2022-08-26T11:54:36.304Z,19.28
2022-08-26T11:59:40.928Z,22.06
2022-08-26T12:04:48.635Z,19.01
2022-08-26T12:09:58.744Z,18.85
2022-08-26T12:15:11.595Z,18.63
2022-08-26T12:20:48.525Z,18.96
2022-08-26T12:25:54.343Z,17.78
2022-08-26T12:31:29.239Z,18.93
2022-08-26T12:36:48.782Z,21.35
2022-08-26T12:42:02.999Z,20.01
2022-08-26T12:47:23.387Z,21.06
2022-08-26T12:52:59.675Z,21.67
2022-08-26T12:58:17.002Z,21.38
2022-08-26T13:03:34.364Z,21.76
2022-08-26T13:08:40.514Z,20.32
2022-08-26T13:13:42.949Z,20.62
2022-08-26T13:18:47.012Z,20.34
2022-08-26T13:23:49.969Z,18.20
2022-08-26T13:29:01.976Z,19.56
2022-08-26T13:34:04.721Z,19.28
2022-08-26T13:39:07.280Z,20.55
2022-08-26T13:44:10.477Z,19.38
2022-08-26T13:49:12.882Z,20.38
2022-08-26T13:54:15.074Z,20.63
2022-08-26T13:59:17.524Z,20.14
2022-08-26T14:04:26.963Z,20.97
2022-08-26T14:09:29.959Z,22.32
2022-08-26T14:14:32.098Z,21.09
2022-08-26T14:19:34.345Z,17.41
2022-08-26T14:24:36.581Z,20.03
2022-08-26T14:29:39.414Z,19.31
2022-08-26T14:34:42.278Z,20.17
2022-08-26T14:39:45.550Z,21.25
2022-08-26T14:44:53.737Z,21.56
2022-08-26T14:49:57.068Z,19.31
2022-08-26T14:54:59.204Z,20.45
2022-08-26T15:00:01.354Z,21.32
2022-08-26T15:05:05.205Z,21.12
2022-08-26T15:10:11.402Z,21.14
2022-08-26T15:15:16.339Z,21.29
2022-08-26T15:20:18.521Z,19.26
2022-08-26T15:25:21.001Z,20.14
2022-08-26T15:30:23.187Z,21.40
2022-08-26T15:35:25.371Z,22.81
2022-08-26T15:40:27.561Z,21.36
2022-08-26T15:45:32.043Z,22.25
2022-08-26T15:50:34.861Z,20.12
2022-08-26T15:55:36.967Z,22.63
2022-08-26T16:00:39.542Z,23.26
2022-08-26T16:05:46.318Z,23.75
2022-08-26T16:10:50.623Z,21.81
2022-08-26T16:15:53.839Z,22.87
2022-08-26T16:21:13.308Z,21.24
2022-08-26T16:26:19.117Z,23.01
2022-08-26T16:31:22.080Z,20.07
2022-08-26T16:36:24.410Z,22.12
2022-08-26T16:41:29.073Z,25.02
2022-08-26T16:46:32.154Z,26.35
2022-08-26T16:51:38.086Z,26.27
2022-08-26T16:56:40.705Z,24.71
2022-08-26T17:01:43.058Z,26.05
2022-08-26T17:06:45.810Z,26.50
2022-08-26T17:11:48.005Z,20.91
2022-08-26T17:16:53.621Z,22.50
2022-08-26T17:21:55.748Z,24.11
2022-08-26T17:26:57.905Z,24.67
2022-08-26T17:32:00.398Z,24.95
2022-08-26T17:37:02.578Z,24.76
2022-08-26T17:42:05.114Z,23.85
2022-08-26T17:47:07.334Z,24.06
2022-08-26T17:52:11.550Z,24.76
2022-08-26T17:57:14.273Z,25.30
2022-08-26T18:02:16.829Z,25.81
2022-08-26T18:07:19.743Z,25.41
2022-08-26T18:12:23.174Z,23.70
2022-08-26T18:17:30.179Z,23.72
2022-08-26T18:22:32.314Z,24.39
2022-08-26T18:27:37.418Z,24.04
2022-08-26T18:32:39.784Z,23.71
2022-08-26T18:37:42.948Z,23.62
2022-08-26T18:42:45.135Z,23.77
2022-08-26T18:47:52.106Z,23.43
2022-08-26T18:52:54.764Z,23.99
2022-08-26T18:57:57.260Z,22.87
2022-08-26T19:02:59.771Z,22.18
2022-08-26T19:08:03.479Z,22.48
2022-08-26T19:13:09.393Z,22.31
2022-08-26T19:18:17.730Z,21.14
2022-08-26T19:23:31.436Z,21.35
2022-08-26T19:28:35.276Z,22.11
2022-08-26T19:33:43.117Z,22.34
2022-08-26T19:38:46.108Z,21.94
2022-08-26T19:43:48.419Z,21.82
2022-08-26T19:48:54.116Z,22.21
2022-08-26T19:54:01.666Z,22.16
2022-08-26T19:59:03.825Z,21.92
2022-08-26T20:04:06.406Z,22.14
2022-08-26T20:09:08.825Z,22.20
2022-08-26T20:14:11.028Z,22.18
2022-08-26T20:19:36.835Z,22.60
2022-08-26T20:24:39.622Z,22.47
2022-08-26T20:29:43.109Z,22.68
2022-08-26T20:34:45.255Z,22.49
2022-08-26T20:39:48.843Z,22.72
2022-08-26T20:44:54.706Z,22.65
2022-08-26T20:49:57.285Z,22.46
2022-08-26T20:54:59.550Z,22.25
2022-08-26T21:00:01.770Z,22.23
2022-08-26T21:05:05.062Z,22.09
2022-08-26T21:10:07.576Z,22.08
2022-08-26T21:15:10.700Z,22.06
2022-08-26T21:20:12.822Z,21.76
2022-08-26T21:25:14.997Z,21.23
2022-08-26T21:30:17.284Z,21.09
2022-08-26T21:35:19.626Z,21.53
2022-08-26T21:40:22.061Z,21.59
2022-08-26T21:45:24.310Z,21.64
2022-08-26T21:50:29.544Z,20.19
2022-08-26T21:55:35.833Z,19.25
2022-08-26T22:00:38.494Z,19.89
2022-08-26T22:05:51.380Z,20.39
2022-08-26T22:10:55.058Z,18.94
2022-08-26T22:15:59.069Z,19.06
2022-08-26T22:21:06.022Z,18.93
2022-08-26T22:26:10.739Z,19.28
2022-08-26T22:31:14.571Z,19.80
2022-08-26T22:36:20.638Z,20.47
2022-08-26T22:41:23.494Z,19.20
2022-08-26T22:46:27.097Z,19.97
2022-08-26T22:51:29.904Z,20.09
2022-08-26T22:56:32.262Z,20.45
2022-08-26T23:01:37.322Z,20.30
2022-08-26T23:06:42.701Z,20.39
2022-08-26T23:11:46.436Z,19.98
2022-08-26T23:16:48.721Z,20.36
2022-08-26T23:21:51.319Z,19.74
2022-08-26T23:26:54.136Z,20.09
2022-08-26T23:31:56.435Z,20.24
2022-08-26T23:37:00.190Z,20.03
2022-08-26T23:42:03.793Z,19.78
2022-08-26T23:47:06.555Z,20.03
2022-08-26T23:52:29.865Z,19.70
2022-08-26T23:57:33.265Z,19.89
